Anantapur, India
Current Conditions -  °F | °C
As of 10:30 AM on Wednesday 26 Nov 2014 (Local Time) from VOBL Reporting Station
Clear Clear  
Wind Chill: 81°   Ceiling: Unl
Heat Index: 82°   Visibility: 6mi
Dew Point: 63°   Wind: 8mph
Humidity: 54%   Direction: 70°ENE
Pressure: 30.03"   Gusts: NA
Location:  14.68°N, 77.62°E
Report Text: VOBL 260530Z 07007KT 020V110 CAVOK 27/17 Q1017 NOSIG
Loading
Personal Weather Stations






























Interactive Weather Map New forecast layout! Learn more

10-Day Weather Forecast

Advertisements
Track Severe Weather on mobile